createdAt,value
2019-02-15T00:01:20.993Z,3.21
2019-02-15T00:03:49.609Z,3.17
2019-02-15T00:06:18.096Z,3.16
2019-02-15T00:08:46.681Z,3.20
2019-02-15T00:11:15.135Z,3.19
2019-02-15T00:13:43.848Z,3.07
2019-02-15T00:16:12.458Z,3.05
2019-02-15T00:18:42.807Z,3.13
2019-02-15T00:21:19.045Z,3.06
2019-02-15T00:23:47.585Z,3.06
2019-02-15T00:26:16.753Z,2.99
2019-02-15T00:28:45.525Z,2.93
2019-02-15T00:31:15.770Z,2.90
2019-02-15T00:33:44.279Z,2.90
2019-02-15T00:36:12.880Z,2.84
2019-02-15T00:38:41.451Z,2.89
2019-02-15T00:41:09.914Z,2.86
2019-02-15T00:43:40.381Z,2.85
2019-02-15T00:46:13.204Z,2.79
2019-02-15T00:48:41.825Z,2.79
2019-02-15T00:51:12.060Z,2.81
2019-02-15T00:53:50.695Z,2.92
2019-02-15T00:56:38.298Z,2.95
2019-02-15T00:59:08.450Z,2.95
2019-02-15T01:01:44.346Z,2.96
2019-02-15T01:04:14.512Z,2.92
2019-02-15T01:06:44.679Z,2.90
2019-02-15T01:09:27.068Z,2.86
2019-02-15T01:11:57.340Z,2.96
2019-02-15T01:14:28.963Z,3.01
2019-02-15T01:16:57.558Z,3.09
2019-02-15T01:19:26.013Z,3.02
2019-02-15T01:21:54.630Z,3.06
2019-02-15T01:24:23.180Z,3.09
2019-02-15T01:26:53.294Z,3.14
2019-02-15T01:29:23.438Z,3.26
2019-02-15T01:31:56.587Z,3.26
2019-02-15T01:34:29.494Z,3.21
2019-02-15T01:37:11.578Z,3.25
2019-02-15T01:39:47.400Z,3.23
2019-02-15T01:42:23.608Z,3.23
2019-02-15T01:44:53.829Z,3.19
2019-02-15T01:47:22.385Z,3.13
2019-02-15T01:49:50.937Z,3.09
2019-02-15T01:52:19.531Z,3.03
2019-02-15T01:54:48.039Z,2.97
2019-02-15T01:57:16.486Z,3.07
2019-02-15T01:59:45.998Z,3.16
2019-02-15T02:02:14.667Z,3.11
2019-02-15T02:04:43.290Z,3.16
2019-02-15T02:07:11.837Z,3.14
2019-02-15T02:09:40.382Z,3.10
2019-02-15T02:12:09.242Z,2.99
2019-02-15T02:14:37.878Z,3.06
2019-02-15T02:17:06.465Z,3.14
2019-02-15T02:19:34.945Z,3.08
2019-02-15T02:22:03.645Z,3.01
2019-02-15T02:24:32.103Z,2.91
2019-02-15T02:27:00.649Z,2.89
2019-02-15T02:29:29.158Z,2.87
2019-02-15T02:31:57.770Z,2.87
2019-02-15T02:34:26.354Z,2.73
2019-02-15T02:36:55.856Z,2.75
2019-02-15T02:39:24.561Z,2.85
2019-02-15T02:41:53.174Z,2.82
2019-02-15T02:44:21.788Z,2.82
2019-02-15T02:46:50.432Z,2.78
2019-02-15T02:49:19.059Z,2.73
2019-02-15T02:51:47.587Z,2.80
2019-02-15T02:54:16.411Z,2.76
2019-02-15T02:56:44.918Z,2.70
2019-02-15T02:59:13.543Z,2.70
2019-02-15T03:01:42.115Z,2.67
2019-02-15T03:04:10.718Z,2.60
2019-02-15T03:06:39.121Z,2.62
2019-02-15T03:09:09.610Z,2.67
2019-02-15T03:11:38.328Z,2.69
2019-02-15T03:14:11.649Z,2.67
2019-02-15T03:16:37.077Z,2.71
2019-02-15T03:19:05.582Z,2.76
2019-02-15T03:21:34.187Z,2.65
2019-02-15T03:24:02.674Z,2.71
2019-02-15T03:26:31.287Z,2.62
2019-02-15T03:28:59.794Z,2.58
2019-02-15T03:31:28.493Z,2.58
2019-02-15T03:33:57.005Z,2.59
2019-02-15T03:36:36.312Z,2.52
2019-02-15T03:39:19.714Z,2.41
2019-02-15T03:41:48.327Z,2.42
2019-02-15T03:44:22.219Z,2.36
2019-02-15T03:46:47.135Z,2.27
2019-02-15T03:49:15.647Z,2.25
2019-02-15T03:51:44.176Z,2.23
2019-02-15T03:54:12.723Z,2.18
2019-02-15T03:56:41.281Z,2.12
2019-02-15T03:59:09.914Z,2.07
2019-02-15T04:01:38.449Z,2.02
2019-02-15T04:04:07.029Z,1.95
2019-02-15T04:06:35.655Z,1.90
2019-02-15T04:09:05.401Z,1.90
2019-02-15T04:11:33.913Z,1.87
2019-02-15T04:14:02.457Z,1.95
2019-02-15T04:16:30.995Z,1.93
2019-02-15T04:18:59.436Z,1.95
2019-02-15T04:21:27.991Z,2.00
2019-02-15T04:23:56.444Z,1.95
2019-02-15T04:26:24.881Z,1.97
2019-02-15T04:28:53.652Z,2.08
2019-02-15T04:31:22.153Z,2.05
2019-02-15T04:33:50.650Z,2.04
2019-02-15T04:36:19.202Z,2.01
2019-02-15T04:38:47.747Z,1.86
2019-02-15T04:41:16.199Z,1.59
2019-02-15T04:43:44.822Z,1.19
2019-02-15T04:46:13.335Z,0.85
2019-02-15T04:48:41.820Z,0.49
2019-02-15T04:51:10.302Z,0.26
2019-02-15T04:53:38.827Z,0.07
2019-02-15T04:56:07.430Z,-0.18
2019-02-15T04:58:36.245Z,-0.38
2019-02-15T05:01:04.792Z,-0.39
2019-02-15T05:03:33.425Z,-0.06
2019-02-15T05:06:01.956Z,0.39
2019-02-15T05:08:30.542Z,0.79
2019-02-15T05:10:59.096Z,1.01
2019-02-15T05:13:27.580Z,1.34
2019-02-15T05:15:56.730Z,1.20
2019-02-15T05:18:25.273Z,0.67
2019-02-15T05:20:53.848Z,0.27
2019-02-15T05:23:22.492Z,-0.16
2019-02-15T05:25:50.974Z,-0.42
2019-02-15T05:28:19.425Z,-0.39
2019-02-15T05:30:48.001Z,-0.14
2019-02-15T05:33:16.694Z,0.28
2019-02-15T05:35:45.330Z,0.82
2019-02-15T05:38:13.912Z,1.27
2019-02-15T05:40:42.393Z,1.64
2019-02-15T05:43:10.808Z,1.85
2019-02-15T05:45:39.443Z,1.78
2019-02-15T05:48:08.053Z,1.81
2019-02-15T05:50:36.669Z,1.41
2019-02-15T05:53:05.193Z,0.73
2019-02-15T05:55:33.648Z,0.27
2019-02-15T05:58:02.251Z,-0.19
2019-02-15T06:00:36.958Z,-0.26
2019-02-15T06:03:01.170Z,-0.14
2019-02-15T06:05:29.653Z,0.14
2019-02-15T06:07:58.237Z,0.54
2019-02-15T06:10:26.832Z,0.97
2019-02-15T06:12:55.432Z,1.47
2019-02-15T06:15:24.013Z,1.81
2019-02-15T06:17:52.711Z,2.05
2019-02-15T06:20:21.287Z,2.00
2019-02-15T06:22:49.764Z,1.97
2019-02-15T06:25:18.227Z,1.56
2019-02-15T06:27:46.743Z,0.97
2019-02-15T06:30:15.357Z,0.36
2019-02-15T06:32:43.979Z,-0.11
2019-02-15T06:35:12.582Z,-0.31
2019-02-15T06:37:41.040Z,0.06
2019-02-15T06:40:09.723Z,0.48
2019-02-15T06:42:38.197Z,1.11
2019-02-15T06:45:07.726Z,1.11
2019-02-15T06:47:36.276Z,1.21
2019-02-15T06:50:06.496Z,1.43
2019-02-15T06:52:35.060Z,1.67
2019-02-15T06:55:03.605Z,1.69
2019-02-15T06:57:32.234Z,1.75
2019-02-15T07:00:18.716Z,1.65
2019-02-15T07:03:03.893Z,1.14
2019-02-15T07:05:32.388Z,0.45
2019-02-15T07:08:00.871Z,-0.12
2019-02-15T07:10:29.298Z,-0.21
2019-02-15T07:12:58.019Z,0.08
2019-02-15T07:15:33.444Z,0.46
2019-02-15T07:17:56.879Z,0.81
2019-02-15T07:20:25.465Z,1.16
2019-02-15T07:22:54.108Z,1.35
2019-02-15T07:25:22.707Z,1.66
2019-02-15T07:27:51.341Z,1.92
2019-02-15T07:30:19.987Z,1.92
2019-02-15T07:32:48.570Z,2.09
2019-02-15T07:35:17.183Z,2.04
2019-02-15T07:37:45.611Z,1.70
2019-02-15T07:40:14.164Z,1.16
2019-02-15T07:42:42.640Z,0.70
2019-02-15T07:45:11.654Z,0.59
2019-02-15T07:47:42.188Z,0.93
2019-02-15T07:50:14.452Z,1.30
2019-02-15T07:52:43.111Z,1.69
2019-02-15T07:55:11.698Z,2.23
2019-02-15T07:57:40.130Z,2.59
2019-02-15T08:00:14.273Z,2.90
2019-02-15T08:02:42.847Z,3.25
2019-02-15T08:05:11.577Z,3.45
2019-02-15T08:07:40.147Z,3.70
2019-02-15T08:10:11.003Z,3.82
2019-02-15T08:12:39.632Z,3.56
2019-02-15T08:15:09.849Z,3.34
2019-02-15T08:17:38.378Z,3.07
2019-02-15T08:20:10.010Z,2.96
2019-02-15T08:22:38.564Z,3.17
2019-02-15T08:25:07.845Z,3.70
2019-02-15T08:27:36.455Z,4.13
2019-02-15T08:30:07.394Z,4.62
2019-02-15T08:32:36.232Z,4.97
2019-02-15T08:35:06.258Z,5.32
2019-02-15T08:37:34.826Z,5.61
2019-02-15T08:40:03.872Z,5.87
2019-02-15T08:42:32.387Z,6.06
2019-02-15T08:45:01.034Z,6.40
2019-02-15T08:47:29.487Z,6.39
2019-02-15T08:49:58.037Z,6.27
2019-02-15T08:52:27.610Z,6.24
2019-02-15T08:54:56.137Z,6.11
2019-02-15T08:57:24.696Z,6.20
2019-02-15T08:59:53.220Z,6.51
2019-02-15T09:02:22.707Z,6.95
2019-02-15T09:04:51.330Z,7.54
2019-02-15T09:07:19.813Z,8.11
2019-02-15T09:09:48.263Z,8.68
2019-02-15T09:12:16.881Z,9.22
2019-02-15T09:14:45.473Z,9.68
2019-02-15T09:17:14.096Z,10.16
2019-02-15T09:19:42.676Z,10.67
2019-02-15T09:22:11.388Z,10.86
2019-02-15T09:24:39.933Z,11.10
2019-02-15T09:27:10.195Z,11.28
2019-02-15T09:29:38.759Z,11.49
2019-02-15T09:32:07.437Z,11.58
2019-02-15T09:34:36.044Z,11.67
2019-02-15T09:37:04.654Z,11.75
2019-02-15T09:39:33.258Z,11.86
2019-02-15T09:42:01.812Z,12.01
2019-02-15T09:44:30.397Z,12.20
2019-02-15T09:46:58.882Z,12.32
2019-02-15T09:49:27.488Z,12.48
2019-02-15T09:51:56.036Z,12.61
2019-02-15T09:54:24.502Z,12.68
2019-02-15T09:56:52.941Z,12.87
2019-02-15T09:59:21.430Z,13.01
2019-02-15T10:01:50.063Z,13.00
2019-02-15T10:04:18.584Z,13.09
2019-02-15T10:06:47.211Z,13.22
2019-02-15T10:09:15.795Z,13.43
2019-02-15T10:11:44.337Z,13.75
2019-02-15T10:14:12.854Z,14.04
2019-02-15T10:16:41.489Z,14.37
2019-02-15T10:19:10.092Z,14.47
2019-02-15T10:21:38.647Z,14.68
2019-02-15T10:24:07.178Z,14.66
2019-02-15T10:26:38.129Z,14.73
2019-02-15T10:29:06.728Z,14.85
2019-02-15T10:31:35.518Z,15.01
2019-02-15T10:34:04.045Z,15.20
2019-02-15T10:36:32.641Z,15.22
2019-02-15T10:39:01.264Z,15.33
2019-02-15T10:41:29.768Z,15.41
2019-02-15T10:43:58.322Z,15.59
2019-02-15T10:46:26.908Z,15.63
2019-02-15T10:48:55.525Z,15.74
2019-02-15T10:51:24.032Z,15.85
2019-02-15T10:53:52.636Z,15.88
2019-02-15T10:56:21.143Z,16.14
2019-02-15T10:58:49.598Z,16.38
2019-02-15T11:01:18.139Z,16.53
2019-02-15T11:03:46.743Z,16.67
2019-02-15T11:06:15.204Z,16.83
2019-02-15T11:08:43.689Z,16.94
2019-02-15T11:11:12.308Z,16.99
2019-02-15T11:13:40.829Z,17.00
2019-02-15T11:16:09.527Z,16.97
2019-02-15T11:18:38.102Z,16.93
2019-02-15T11:21:06.763Z,17.06
2019-02-15T11:23:35.352Z,17.08
2019-02-15T11:26:04.666Z,17.08
2019-02-15T11:28:33.322Z,17.09
2019-02-15T11:31:01.798Z,17.09
2019-02-15T11:33:32.494Z,17.13
2019-02-15T11:36:00.775Z,17.26
2019-02-15T11:38:29.303Z,17.40
2019-02-15T11:40:57.889Z,17.45
2019-02-15T11:43:26.593Z,17.63
2019-02-15T11:45:55.118Z,17.59
2019-02-15T11:48:23.683Z,17.64
2019-02-15T11:50:52.371Z,17.75
2019-02-15T11:53:20.949Z,17.87
2019-02-15T11:55:49.497Z,17.92
2019-02-15T11:58:18.095Z,18.01
2019-02-15T12:00:46.662Z,18.14
2019-02-15T12:03:15.200Z,18.08
2019-02-15T12:05:43.817Z,18.03
2019-02-15T12:08:12.351Z,17.93
2019-02-15T12:10:40.976Z,17.99
2019-02-15T12:13:09.939Z,18.08
2019-02-15T12:15:38.545Z,18.17
2019-02-15T12:18:07.176Z,18.19
2019-02-15T12:20:35.692Z,18.36
2019-02-15T12:23:04.343Z,18.42
2019-02-15T12:25:32.903Z,18.47
2019-02-15T12:28:01.486Z,18.54
2019-02-15T12:30:30.161Z,18.66
2019-02-15T12:32:59.255Z,18.78
2019-02-15T12:35:27.930Z,18.86
2019-02-15T12:37:56.499Z,18.96
2019-02-15T12:40:25.047Z,19.03
2019-02-15T12:42:53.530Z,19.11
2019-02-15T12:45:22.918Z,19.12
2019-02-15T12:47:51.547Z,19.22
2019-02-15T12:50:21.142Z,19.30
2019-02-15T12:52:49.806Z,19.33
2019-02-15T12:55:18.403Z,19.29
2019-02-15T12:57:47.043Z,19.34
2019-02-15T13:00:16.603Z,19.41
2019-02-15T13:02:45.247Z,19.46
2019-02-15T13:05:14.768Z,19.35
2019-02-15T13:07:43.355Z,19.24
2019-02-15T13:10:20.385Z,19.36
2019-02-15T13:12:48.943Z,19.33
2019-02-15T13:15:17.457Z,19.19
2019-02-15T13:17:46.124Z,19.19
2019-02-15T13:20:14.752Z,19.17
2019-02-15T13:22:43.357Z,19.15
2019-02-15T13:25:12.035Z,19.16
2019-02-15T13:27:40.605Z,19.17
2019-02-15T13:30:13.967Z,19.25
2019-02-15T13:32:42.627Z,19.34
2019-02-15T13:35:13.747Z,19.28
2019-02-15T13:37:42.411Z,19.22
2019-02-15T13:40:11.003Z,19.22
2019-02-15T13:42:39.565Z,19.29
2019-02-15T13:45:14.225Z,19.28
2019-02-15T13:47:42.838Z,19.25
2019-02-15T13:50:16.200Z,19.19
2019-02-15T13:52:44.897Z,19.14
2019-02-15T13:55:13.485Z,19.15
2019-02-15T13:57:42.062Z,19.16
2019-02-15T14:00:14.227Z,19.19
2019-02-15T14:02:42.790Z,19.21
2019-02-15T14:05:14.138Z,19.15
2019-02-15T14:07:42.712Z,19.15
2019-02-15T14:10:14.890Z,19.14
2019-02-15T14:12:43.491Z,19.15
2019-02-15T14:15:12.579Z,19.15
2019-02-15T14:17:47.719Z,19.12
2019-02-15T14:20:13.182Z,19.10
2019-02-15T14:22:41.774Z,19.10
2019-02-15T14:25:12.562Z,19.10
2019-02-15T14:30:16.877Z,19.21
2019-02-15T14:32:45.517Z,19.59
2019-02-15T14:35:16.787Z,19.89
2019-02-15T14:37:45.427Z,20.14
2019-02-15T14:40:14.508Z,20.58
2019-02-15T14:42:43.276Z,20.69
2019-02-15T14:45:12.935Z,20.77
2019-02-15T14:47:41.601Z,20.93
2019-02-15T14:50:10.996Z,21.10
2019-02-15T14:52:39.621Z,21.16
2019-02-15T14:55:09.736Z,21.06
2019-02-15T14:57:38.448Z,21.27
2019-02-15T15:00:10.011Z,21.29
2019-02-15T15:02:38.649Z,20.98
2019-02-15T15:05:07.924Z,20.88
2019-02-15T15:07:36.556Z,20.77
2019-02-15T15:10:07.849Z,20.64
2019-02-15T15:12:36.357Z,20.62
2019-02-15T15:15:07.851Z,20.74
2019-02-15T15:17:36.411Z,20.79
2019-02-15T15:20:07.708Z,20.76
2019-02-15T15:22:36.368Z,20.72
2019-02-15T15:25:06.866Z,20.75
2019-02-15T15:27:35.416Z,20.65
2019-02-15T15:30:04.434Z,20.67
2019-02-15T15:32:35.233Z,20.68
2019-02-15T15:35:04.009Z,20.77
2019-02-15T15:37:32.488Z,20.74
2019-02-15T15:40:01.073Z,20.57
2019-02-15T15:42:29.694Z,20.36
2019-02-15T15:44:58.258Z,20.29
2019-02-15T15:47:26.851Z,20.36
2019-02-15T15:49:55.427Z,20.41
2019-02-15T15:52:23.937Z,20.67
2019-02-15T15:54:52.654Z,20.69
2019-02-15T15:57:21.273Z,20.66
2019-02-15T15:59:50.032Z,20.60
2019-02-15T16:02:18.724Z,20.41
2019-02-15T16:04:47.449Z,20.25
2019-02-15T16:07:16.379Z,20.15
2019-02-15T16:09:45.037Z,20.11
2019-02-15T16:12:13.791Z,20.08
2019-02-15T16:14:42.458Z,19.91
2019-02-15T16:17:11.086Z,19.82
2019-02-15T16:19:48.830Z,19.53
2019-02-15T16:22:09.991Z,19.38
2019-02-15T16:24:38.469Z,19.30
2019-02-15T16:27:07.115Z,19.42
2019-02-15T16:29:35.751Z,19.52
2019-02-15T16:32:05.966Z,19.31
2019-02-15T16:34:34.498Z,19.03
2019-02-15T16:37:03.106Z,18.83
2019-02-15T16:39:31.716Z,18.64
2019-02-15T16:42:00.167Z,18.48
2019-02-15T16:44:28.725Z,18.21
2019-02-15T16:46:57.241Z,18.21
2019-02-15T16:49:25.762Z,18.03
2019-02-15T16:51:54.300Z,17.95
2019-02-15T16:54:22.840Z,17.82
2019-02-15T16:56:51.306Z,17.58
2019-02-15T16:59:19.895Z,17.40
2019-02-15T17:01:48.620Z,17.24
2019-02-15T17:04:17.275Z,17.01
2019-02-15T17:06:45.916Z,16.77
2019-02-15T17:09:17.449Z,16.61
2019-02-15T17:11:46.066Z,16.54
2019-02-15T17:14:14.639Z,16.37
2019-02-15T17:16:43.271Z,16.37
2019-02-15T17:19:11.848Z,16.22
2019-02-15T17:21:40.375Z,16.19
2019-02-15T17:24:09.527Z,16.09
2019-02-15T17:26:38.050Z,15.91
2019-02-15T17:29:08.192Z,15.69
2019-02-15T17:31:36.751Z,15.50
2019-02-15T17:34:05.378Z,15.41
2019-02-15T17:36:33.892Z,15.42
2019-02-15T17:39:02.478Z,15.27
2019-02-15T17:41:31.363Z,15.17
2019-02-15T17:44:00.064Z,15.02
2019-02-15T17:46:28.552Z,14.90
2019-02-15T17:49:00.802Z,14.83
2019-02-15T17:51:27.296Z,14.76
2019-02-15T17:53:55.912Z,14.65
2019-02-15T17:56:24.615Z,14.55
2019-02-15T17:58:53.212Z,14.50
2019-02-15T18:01:21.881Z,14.42
2019-02-15T18:03:50.420Z,14.36
2019-02-15T18:06:19.057Z,14.24
2019-02-15T18:08:47.685Z,14.15
2019-02-15T18:11:16.264Z,14.13
2019-02-15T18:13:44.892Z,14.04
2019-02-15T18:16:14.446Z,14.00
2019-02-15T18:18:43.039Z,13.95
2019-02-15T18:21:12.866Z,13.88
2019-02-15T18:23:41.590Z,13.84
2019-02-15T18:26:10.166Z,13.85
2019-02-15T18:28:38.709Z,13.62
2019-02-15T18:31:07.291Z,13.61
2019-02-15T18:33:35.949Z,13.68
2019-02-15T18:36:05.476Z,13.76
2019-02-15T18:38:34.183Z,13.76
2019-02-15T18:41:02.750Z,13.67
2019-02-15T18:43:31.384Z,13.59
2019-02-15T18:46:00.098Z,13.53
2019-02-15T18:48:28.620Z,13.62
2019-02-15T18:50:58.778Z,13.61
2019-02-15T18:53:27.165Z,13.54
2019-02-15T18:55:55.864Z,13.55
2019-02-15T18:58:24.407Z,13.63
2019-02-15T19:00:53.001Z,13.72
2019-02-15T19:03:21.786Z,13.77
2019-02-15T19:05:50.390Z,13.81
2019-02-15T19:08:18.962Z,13.78
2019-02-15T19:10:47.618Z,13.82
2019-02-15T19:13:16.217Z,13.82
2019-02-15T19:15:44.903Z,13.81
2019-02-15T19:18:13.558Z,13.76
2019-02-15T19:20:42.192Z,13.75
2019-02-15T19:23:10.704Z,13.90
2019-02-15T19:25:40.819Z,14.00
2019-02-15T19:28:09.336Z,13.92
2019-02-15T19:30:37.889Z,13.97
2019-02-15T19:33:08.053Z,14.08
2019-02-15T19:35:36.528Z,14.22
2019-02-15T19:38:05.124Z,14.36
2019-02-15T19:40:33.769Z,14.30
2019-02-15T19:43:05.459Z,14.17
2019-02-15T19:45:34.076Z,14.08
2019-02-15T19:48:02.593Z,13.96
2019-02-15T19:50:31.380Z,13.92
2019-02-15T19:52:59.994Z,13.92
2019-02-15T19:55:28.715Z,14.00
2019-02-15T19:57:57.315Z,14.07
2019-02-15T20:00:25.981Z,14.09
2019-02-15T20:02:54.606Z,14.19
2019-02-15T20:05:23.210Z,14.21
2019-02-15T20:07:51.837Z,14.22
2019-02-15T20:10:22.331Z,14.15
2019-02-15T20:12:50.938Z,14.10
2019-02-15T20:15:19.718Z,14.12
2019-02-15T20:17:48.334Z,14.16
2019-02-15T20:20:17.731Z,14.16
2019-02-15T20:22:46.370Z,14.21
2019-02-15T20:25:15.075Z,14.02
2019-02-15T20:27:43.767Z,13.96
2019-02-15T20:30:15.335Z,14.05
2019-02-15T20:32:43.959Z,14.01
2019-02-15T20:35:13.562Z,14.04
2019-02-15T20:37:42.465Z,13.97
2019-02-15T20:40:12.481Z,13.92
2019-02-15T20:42:41.244Z,13.96
2019-02-15T20:45:21.336Z,13.91
2019-02-15T20:50:35.472Z,13.95
2019-02-15T20:53:04.091Z,13.98
2019-02-15T20:55:32.577Z,13.89
2019-02-15T20:58:01.115Z,13.89
2019-02-15T21:00:30.297Z,13.91
2019-02-15T21:02:58.818Z,14.03
2019-02-15T21:05:27.484Z,14.02
2019-02-15T21:07:56.098Z,13.95
2019-02-15T21:10:24.783Z,13.87
2019-02-15T21:12:53.321Z,13.82
2019-02-15T21:15:24.095Z,13.83
2019-02-15T21:17:53.067Z,13.84
2019-02-15T21:20:21.704Z,13.75
2019-02-15T21:22:50.300Z,13.81
2019-02-15T21:25:18.892Z,13.77
2019-02-15T21:27:47.468Z,13.65
2019-02-15T21:30:18.108Z,13.63
2019-02-15T21:32:46.857Z,13.61
2019-02-15T21:35:15.476Z,13.63
2019-02-15T21:37:44.074Z,13.75
2019-02-15T21:40:17.212Z,13.67
2019-02-15T21:42:45.755Z,13.71
2019-02-15T21:45:14.556Z,13.65
2019-02-15T21:47:43.169Z,13.61
2019-02-15T21:50:17.219Z,13.53
2019-02-15T21:52:44.571Z,13.57
2019-02-15T21:55:16.470Z,13.48
2019-02-15T21:57:45.099Z,13.49
2019-02-15T22:00:16.600Z,13.53
2019-02-15T22:02:45.275Z,13.30
2019-02-15T22:05:14.497Z,13.11
2019-02-15T22:07:43.171Z,13.06
2019-02-15T22:10:11.672Z,13.04
2019-02-15T22:12:41.624Z,13.01
2019-02-15T22:15:14.901Z,13.01
2019-02-15T22:17:43.415Z,12.94
2019-02-15T22:20:13.735Z,12.87
2019-02-15T22:22:42.392Z,12.87
2019-02-15T22:25:11.089Z,12.90
2019-02-15T22:27:39.687Z,12.77
2019-02-15T22:30:18.334Z,12.54
2019-02-15T22:32:46.941Z,12.52
2019-02-15T22:35:15.659Z,12.53
2019-02-15T22:37:44.252Z,12.54
2019-02-15T22:40:30.017Z,12.53
2019-02-15T22:43:01.702Z,12.54
2019-02-15T22:45:30.229Z,12.50
2019-02-15T22:47:58.805Z,12.46
2019-02-15T22:50:35.696Z,12.26
2019-02-15T22:52:57.692Z,12.32
2019-02-15T22:55:26.345Z,12.48
2019-02-15T22:57:54.849Z,12.59
2019-02-15T23:00:30.899Z,12.58
2019-02-15T23:02:59.524Z,12.49
2019-02-15T23:05:28.160Z,12.46
2019-02-15T23:07:56.714Z,12.32
2019-02-15T23:10:25.318Z,12.25
2019-02-15T23:12:53.867Z,12.24
2019-02-15T23:15:22.440Z,12.16
2019-02-15T23:17:51.310Z,12.07
2019-02-15T23:20:19.929Z,12.01
2019-02-15T23:22:48.509Z,11.93
2019-02-15T23:25:17.143Z,11.72
2019-02-15T23:27:45.650Z,11.50
2019-02-15T23:30:14.223Z,11.35
2019-02-15T23:32:42.878Z,11.19
2019-02-15T23:35:11.538Z,11.08
2019-02-15T23:37:39.988Z,10.90
2019-02-15T23:40:08.577Z,10.78
2019-02-15T23:42:37.139Z,10.74
2019-02-15T23:45:06.322Z,10.69
2019-02-15T23:47:34.934Z,10.66
2019-02-15T23:50:03.614Z,10.59
2019-02-15T23:52:32.190Z,10.53
2019-02-15T23:55:00.733Z,10.46
2019-02-15T23:57:29.485Z,10.21
2019-02-15T23:59:57.994Z,9.93
